Time;durP1;ratioP1;P1;durP2;ratioP2;P2;SDS_P1;SDS_P2;PMS_P1;PMS_P2;Temp;Humidity;BMP_temperature;BMP_pressure;BME280_temperature;BME280_humidity;BME280_pressure;Samples;Min_cycle;Max_cycle;Signal;HPM_P1;HPM_P2
2023/07/25 00:01:24;;;;;;;3.30;3.00;;;;;;;;;;5033219;28;20487;-51
2023/07/25 00:03:51;;;;;;;2.80;2.60;;;;;;;;;;5033042;28;20452;-50
2023/07/25 00:06:18;;;;;;;2.83;2.63;;;;;;;;;;5033312;28;20543;-50
2023/07/25 00:08:44;;;;;;;3.30;2.80;;;;;;;;;;5032975;28;21021;-51
2023/07/25 00:11:13;;;;;;;2.90;2.70;;;;;;;;;;5032865;28;20814;-51
2023/07/25 00:13:40;;;;;;;3.30;2.77;;;;;;;;;;5032838;28;20454;-57
2023/07/25 00:16:09;;;;;;;2.50;2.30;;;;;;;;;;5033036;28;20461;-55
2023/07/25 00:18:35;;;;;;;3.13;2.83;;;;;;;;;;5032971;28;20538;-54
2023/07/25 00:21:02;;;;;;;3.03;2.83;;;;;;;;;;5032896;28;20494;-56
2023/07/25 00:23:29;;;;;;;2.87;2.63;;;;;;;;;;5032768;28;20551;-56
2023/07/25 00:25:56;;;;;;;3.60;3.07;;;;;;;;;;5032679;28;20452;-56
2023/07/25 00:28:23;;;;;;;3.13;2.83;;;;;;;;;;5032921;28;20457;-51
2023/07/25 00:30:50;;;;;;;2.60;2.27;;;;;;;;;;5032895;28;20488;-51
2023/07/25 00:33:18;;;;;;;2.67;2.47;;;;;;;;;;5032794;28;20459;-50
2023/07/25 00:35:51;;;;;;;7.47;2.97;;;;;;;;;;5036336;28;20452;-56
2023/07/25 00:38:18;;;;;;;2.70;2.50;;;;;;;;;;5036643;28;20452;-56
2023/07/25 00:40:46;;;;;;;3.07;2.87;;;;;;;;;;5036466;28;20505;-55
2023/07/25 00:43:13;;;;;;;3.00;2.80;;;;;;;;;;5036513;28;20455;-56
2023/07/25 00:45:40;;;;;;;2.90;2.70;;;;;;;;;;5036626;28;20456;-56
2023/07/25 00:48:07;;;;;;;2.90;2.70;;;;;;;;;;5036633;28;20557;-55
2023/07/25 00:50:35;;;;;;;3.00;2.80;;;;;;;;;;5036370;28;20487;-54
2023/07/25 00:53:03;;;;;;;2.40;2.30;;;;;;;;;;5036336;28;20458;-54
2023/07/25 00:55:30;;;;;;;3.00;2.80;;;;;;;;;;5036209;28;21014;-54
2023/07/25 00:57:57;;;;;;;10.90;2.90;;;;;;;;;;5036088;28;20487;-52
2023/07/25 01:00:24;;;;;;;2.37;2.27;;;;;;;;;;5036215;28;20486;-50
2023/07/25 01:02:51;;;;;;;4.90;2.83;;;;;;;;;;5036218;28;20467;-50
2023/07/25 01:05:17;;;;;;;3.30;2.70;;;;;;;;;;5036240;28;20975;-52
2023/07/25 01:07:46;;;;;;;2.93;2.73;;;;;;;;;;5036067;28;20451;-50
2023/07/25 01:10:14;;;;;;;2.53;2.33;;;;;;;;;;5036246;28;20456;-51
2023/07/25 01:12:41;;;;;;;2.77;2.57;;;;;;;;;;5035951;28;20459;-56
2023/07/25 01:15:08;;;;;;;2.63;2.53;;;;;;;;;;5036018;28;20534;-56
2023/07/25 01:17:35;;;;;;;3.00;2.80;;;;;;;;;;5036024;28;20807;-55
2023/07/25 01:20:03;;;;;;;2.70;2.40;;;;;;;;;;5035809;28;20490;-56
2023/07/25 01:22:30;;;;;;;2.63;2.37;;;;;;;;;;5035756;28;20851;-55
2023/07/25 01:24:58;;;;;;;2.90;2.70;;;;;;;;;;5035967;28;20546;-56
2023/07/25 01:27:25;;;;;;;3.27;2.90;;;;;;;;;;5035897;28;20462;-54
2023/07/25 01:29:52;;;;;;;2.73;2.40;;;;;;;;;;5035728;28;20868;-54
2023/07/25 01:32:19;;;;;;;5.00;2.87;;;;;;;;;;5035680;28;20465;-55
2023/07/25 01:34:46;;;;;;;2.20;2.10;;;;;;;;;;5035515;28;20495;-54
2023/07/25 01:37:13;;;;;;;2.90;2.70;;;;;;;;;;5035550;28;20947;-52
2023/07/25 01:39:42;;;;;;;4.37;2.80;;;;;;;;;;5035604;28;20882;-51
2023/07/25 01:42:10;;;;;;;3.30;3.00;;;;;;;;;;5035556;28;20456;-51
2023/07/25 01:44:37;;;;;;;4.27;2.53;;;;;;;;;;5035496;28;20465;-53
2023/07/25 01:47:04;;;;;;;3.17;2.87;;;;;;;;;;5034491;28;20462;-50
2023/07/25 01:49:31;;;;;;;2.93;2.73;;;;;;;;;;5035211;28;20462;-51
2023/07/25 01:51:58;;;;;;;3.33;2.43;;;;;;;;;;5035521;28;20456;-56
2023/07/25 01:54:25;;;;;;;2.97;2.77;;;;;;;;;;5035416;28;20455;-55
2023/07/25 01:56:52;;;;;;;2.93;2.73;;;;;;;;;;5035159;28;20831;-55
2023/07/25 01:59:21;;;;;;;3.60;3.10;;;;;;;;;;5035226;28;20537;-56
2023/07/25 02:01:48;;;;;;;3.90;2.90;;;;;;;;;;5034933;28;21033;-56
2023/07/25 02:04:15;;;;;;;3.10;2.90;;;;;;;;;;5035281;28;20472;-56
2023/07/25 02:06:42;;;;;;;2.90;2.60;;;;;;;;;;5035201;28;20459;-52
2023/07/25 02:09:09;;;;;;;3.00;2.80;;;;;;;;;;5035087;28;20544;-55
2023/07/25 02:11:35;;;;;;;4.63;3.10;;;;;;;;;;5035012;28;20953;-56
2023/07/25 02:14:02;;;;;;;4.13;2.77;;;;;;;;;;5034908;28;20456;-56
2023/07/25 02:16:33;;;;;;;6.13;3.40;;;;;;;;;;5034778;28;20452;-56
2023/07/25 02:19:00;;;;;;;5.33;2.97;;;;;;;;;;5034733;28;21023;-57
2023/07/25 02:21:27;;;;;;;4.27;3.70;;;;;;;;;;5034807;28;20488;-53
2023/07/25 02:23:54;;;;;;;3.33;2.90;;;;;;;;;;5034787;28;20456;-56
2023/07/25 02:26:21;;;;;;;3.00;2.80;;;;;;;;;;5034750;28;20545;-56
2023/07/25 02:28:48;;;;;;;3.20;3.00;;;;;;;;;;5034590;28;21034;-56
2023/07/25 02:31:14;;;;;;;3.43;3.07;;;;;;;;;;5034458;28;20462;-54
2023/07/25 02:33:43;;;;;;;4.20;3.90;;;;;;;;;;5034662;28;20452;-55
2023/07/25 02:36:10;;;;;;;4.03;3.73;;;;;;;;;;5034517;28;20543;-53
2023/07/25 02:38:37;;;;;;;5.10;3.77;;;;;;;;;;5034480;28;20535;-54
2023/07/25 02:41:04;;;;;;;4.10;3.80;;;;;;;;;;5034279;28;20483;-55
2023/07/25 02:43:31;;;;;;;4.50;4.10;;;;;;;;;;5034270;28;20832;-55
2023/07/25 02:45:58;;;;;;;4.70;4.30;;;;;;;;;;5034552;28;20460;-56
2023/07/25 02:48:24;;;;;;;5.50;4.90;;;;;;;;;;5034362;28;20452;-56
2023/07/25 02:50:53;;;;;;;4.53;4.23;;;;;;;;;;5034243;28;20816;-56
2023/07/25 02:53:20;;;;;;;4.67;4.27;;;;;;;;;;5034130;28;20452;-52
2023/07/25 02:55:46;;;;;;;3.50;3.30;;;;;;;;;;5033909;28;20451;-49
2023/07/25 02:58:13;;;;;;;5.73;3.80;;;;;;;;;;5033829;28;20831;-50
2023/07/25 03:00:40;;;;;;;4.43;3.90;;;;;;;;;;5034265;28;20563;-51
2023/07/25 03:03:07;;;;;;;4.30;3.90;;;;;;;;;;5034030;28;20453;-56
2023/07/25 03:05:34;;;;;;;3.60;3.30;;;;;;;;;;5034096;28;20452;-55
2023/07/25 03:08:02;;;;;;;4.90;4.50;;;;;;;;;;5033855;28;20456;-55
2023/07/25 03:10:29;;;;;;;4.93;4.37;;;;;;;;;;5033747;28;20880;-56
2023/07/25 03:12:56;;;;;;;5.23;3.97;;;;;;;;;;5033975;28;20812;-57
2023/07/25 03:15:23;;;;;;;4.93;3.70;;;;;;;;;;5033876;28;20451;-56
2023/07/25 03:17:50;;;;;;;3.87;3.57;;;;;;;;;;5033759;28;20458;-54
2023/07/25 03:20:16;;;;;;;5.33;4.70;;;;;;;;;;5033584;28;20482;-54
2023/07/25 03:22:43;;;;;;;6.50;3.57;;;;;;;;;;5033535;28;20452;-56
2023/07/25 03:25:12;;;;;;;4.20;3.50;;;;;;;;;;5033452;28;20451;-55
2023/07/25 03:27:38;;;;;;;4.47;4.13;;;;;;;;;;5033658;28;20543;-56
2023/07/25 03:30:06;;;;;;;5.37;4.00;;;;;;;;;;5033553;28;20546;-55
2023/07/25 03:32:33;;;;;;;4.00;3.60;;;;;;;;;;5033543;28;20452;-54
2023/07/25 03:35:00;;;;;;;4.20;3.40;;;;;;;;;;5033322;28;20944;-55
2023/07/25 03:37:27;;;;;;;8.50;4.00;;;;;;;;;;5033343;28;20843;-56
2023/07/25 03:39:54;;;;;;;3.80;3.40;;;;;;;;;;5033242;28;20479;-52
2023/07/25 03:42:22;;;;;;;5.40;3.93;;;;;;;;;;5033376;28;20575;-52
2023/07/25 03:44:49;;;;;;;5.47;3.93;;;;;;;;;;5033361;28;20458;-52
2023/07/25 03:47:16;;;;;;;4.20;3.83;;;;;;;;;;5033259;28;20458;-51
2023/07/25 03:49:43;;;;;;;4.50;3.97;;;;;;;;;;5033208;28;20456;-51
2023/07/25 03:52:10;;;;;;;4.50;4.10;;;;;;;;;;5033099;28;20457;-53
2023/07/25 03:54:37;;;;;;;6.03;4.00;;;;;;;;;;5033032;28;20450;-49
2023/07/25 03:57:05;;;;;;;6.10;3.90;;;;;;;;;;5032815;28;21020;-56
2023/07/25 03:59:33;;;;;;;6.97;4.10;;;;;;;;;;5033094;28;20515;-55
2023/07/25 04:02:00;;;;;;;4.67;3.83;;;;;;;;;;5032955;28;20487;-56
2023/07/25 04:04:27;;;;;;;3.80;3.53;;;;;;;;;;5033032;28;20447;-54
2023/07/25 04:06:53;;;;;;;5.53;4.23;;;;;;;;;;5032829;28;20451;-55
2023/07/25 04:09:20;;;;;;;5.50;3.60;;;;;;;;;;5032659;28;20546;-55
2023/07/25 04:11:47;;;;;;;5.27;4.17;;;;;;;;;;5033086;28;20790;-56
2023/07/25 04:14:14;;;;;;;4.40;4.07;;;;;;;;;;5032973;28;20458;-56
2023/07/25 04:16:42;;;;;;;6.87;4.90;;;;;;;;;;5032902;28;20455;-55
2023/07/25 04:19:09;;;;;;;4.50;4.10;;;;;;;;;;5032829;28;20461;-56
2023/07/25 04:21:36;;;;;;;4.40;4.00;;;;;;;;;;5032609;28;20572;-56
2023/07/25 04:24:05;;;;;;;5.43;4.20;;;;;;;;;;5032886;28;20452;-55
2023/07/25 04:26:32;;;;;;;7.00;4.73;;;;;;;;;;5032881;28;20448;-51
2023/07/25 04:28:59;;;;;;;3.83;3.53;;;;;;;;;;5032809;28;20454;-54
2023/07/25 04:31:25;;;;;;;5.90;4.50;;;;;;;;;;5032735;28;20450;-53
2023/07/25 04:33:54;;;;;;;3.43;3.13;;;;;;;;;;5032649;28;20457;-53
2023/07/25 04:36:20;;;;;;;3.63;3.30;;;;;;;;;;5032790;28;20453;-54
2023/07/25 04:38:47;;;;;;;4.57;4.10;;;;;;;;;;5032591;28;20462;-50
2023/07/25 04:41:14;;;;;;;3.53;3.10;;;;;;;;;;5032632;28;20867;-50
2023/07/25 04:43:41;;;;;;;4.90;3.10;;;;;;;;;;5032647;28;20452;-52
2023/07/25 04:46:08;;;;;;;4.37;3.80;;;;;;;;;;5032460;28;20451;-50
2023/07/25 04:48:35;;;;;;;3.73;2.90;;;;;;;;;;5032507;28;20459;-52
2023/07/25 04:51:03;;;;;;;4.20;3.13;;;;;;;;;;5032669;28;20517;-55
2023/07/25 04:53:30;;;;;;;4.40;3.73;;;;;;;;;;5032577;28;20455;-56
2023/07/25 04:55:57;;;;;;;5.27;3.43;;;;;;;;;;5032419;28;20545;-56
2023/07/25 04:58:24;;;;;;;6.40;3.83;;;;;;;;;;5032514;28;20460;-56
2023/07/25 05:00:51;;;;;;;6.93;3.83;;;;;;;;;;5032330;28;20485;-55
2023/07/25 05:03:18;;;;;;;4.50;3.70;;;;;;;;;;5032397;28;20459;-55
2023/07/25 05:05:45;;;;;;;4.23;3.67;;;;;;;;;;5032492;28;20457;-54
2023/07/25 05:08:13;;;;;;;5.93;3.80;;;;;;;;;;5032500;28;20538;-55
2023/07/25 05:10:41;;;;;;;5.07;3.97;;;;;;;;;;5032417;28;20546;-54
2023/07/25 05:13:07;;;;;;;4.03;3.33;;;;;;;;;;5032372;28;20813;-53
2023/07/25 05:15:34;;;;;;;4.13;3.83;;;;;;;;;;5032163;28;20486;-52
2023/07/25 05:18:01;;;;;;;7.27;4.80;;;;;;;;;;5032417;28;20457;-55
2023/07/25 05:20:28;;;;;;;3.70;3.40;;;;;;;;;;5032485;28;20542;-52
2023/07/25 05:22:55;;;;;;;3.93;3.53;;;;;;;;;;5035746;28;20524;-53
2023/07/25 05:25:23;;;;;;;3.83;3.53;;;;;;;;;;5035782;28;20959;-53
2023/07/25 05:27:50;;;;;;;4.57;3.30;;;;;;;;;;5035744;28;20538;-54
2023/07/25 05:30:17;;;;;;;6.43;3.87;;;;;;;;;;5035569;28;20548;-54
2023/07/25 05:32:44;;;;;;;3.50;3.00;;;;;;;;;;5035801;28;20457;-52
2023/07/25 05:35:11;;;;;;;8.83;3.73;;;;;;;;;;5035750;28;20457;-51
2023/07/25 05:37:39;;;;;;;2.50;2.40;;;;;;;;;;5035623;28;20452;-51
2023/07/25 05:40:06;;;;;;;5.27;2.73;;;;;;;;;;5035543;28;20452;-51
2023/07/25 05:42:35;;;;;;;5.60;2.70;;;;;;;;;;5035283;28;20908;-50
2023/07/25 05:45:02;;;;;;;2.70;2.50;;;;;;;;;;5035385;28;20456;-53
2023/07/25 05:47:29;;;;;;;5.57;2.53;;;;;;;;;;5035493;28;20535;-56
2023/07/25 05:49:56;;;;;;;4.63;2.40;;;;;;;;;;5035549;28;20974;-55
2023/07/25 05:52:23;;;;;;;4.53;2.67;;;;;;;;;;5035271;28;20455;-56
2023/07/25 05:54:51;;;;;;;3.73;3.40;;;;;;;;;;5035280;28;20452;-54
2023/07/25 05:57:18;;;;;;;4.20;2.43;;;;;;;;;;5034892;28;20879;-56
2023/07/25 05:59:46;;;;;;;6.10;3.10;;;;;;;;;;5035375;28;20483;-53
2023/07/25 06:02:13;;;;;;;3.10;2.90;;;;;;;;;;5035181;28;20593;-50
2023/07/25 06:04:42;;;;;;;6.27;3.73;;;;;;;;;;5035202;28;20543;-55
2023/07/25 06:07:09;;;;;;;4.67;2.90;;;;;;;;;;5035012;28;20464;-54
2023/07/25 06:09:36;;;;;;;5.90;3.30;;;;;;;;;;5034946;28;20448;-55
2023/07/25 06:12:03;;;;;;;8.13;4.10;;;;;;;;;;5034925;28;20452;-55
2023/07/25 06:14:30;;;;;;;4.50;3.57;;;;;;;;;;5035089;28;20460;-56
2023/07/25 06:16:58;;;;;;;3.20;2.90;;;;;;;;;;5034968;28;20452;-56
2023/07/25 06:19:25;;;;;;;3.47;3.17;;;;;;;;;;5034835;28;20452;-55
2023/07/25 06:21:52;;;;;;;13.70;3.40;;;;;;;;;;5034651;28;20477;-54
2023/07/25 06:24:19;;;;;;;2.90;2.70;;;;;;;;;;5034555;28;20544;-56
2023/07/25 06:26:46;;;;;;;6.77;2.80;;;;;;;;;;5034701;28;20453;-53
2023/07/25 06:29:13;;;;;;;9.93;3.60;;;;;;;;;;5034868;28;20890;-55
2023/07/25 06:31:40;;;;;;;4.93;3.13;;;;;;;;;;5034203;28;20542;-54
2023/07/25 06:34:09;;;;;;;6.13;3.07;;;;;;;;;;5034911;28;20448;-54
2023/07/25 06:36:36;;;;;;;3.63;2.70;;;;;;;;;;5034422;28;20460;-53
2023/07/25 06:39:03;;;;;;;3.47;2.77;;;;;;;;;;5034390;28;21009;-51
2023/07/25 06:41:30;;;;;;;5.20;2.77;;;;;;;;;;5034415;28;20488;-56
2023/07/25 06:43:57;;;;;;;2.57;2.00;;;;;;;;;;5034456;28;20463;-56
2023/07/25 06:46:24;;;;;;;4.13;2.17;;;;;;;;;;5034349;28;20544;-56
2023/07/25 06:48:51;;;;;;;4.50;2.80;;;;;;;;;;5034328;28;20478;-55
2023/07/25 06:51:19;;;;;;;3.37;2.30;;;;;;;;;;5034054;28;20864;-55
2023/07/25 06:53:46;;;;;;;3.53;2.20;;;;;;;;;;5033928;28;20948;-55
2023/07/25 06:56:13;;;;;;;3.37;2.90;;;;;;;;;;5034052;28;20839;-53
2023/07/25 06:58:40;;;;;;;3.00;2.33;;;;;;;;;;5034120;28;20449;-53
2023/07/25 07:01:07;;;;;;;5.00;2.30;;;;;;;;;;5033954;28;20445;-55
2023/07/25 07:03:34;;;;;;;4.53;2.20;;;;;;;;;;5033824;28;20556;-55
2023/07/25 07:06:01;;;;;;;4.80;2.70;;;;;;;;;;5033623;28;20489;-53
2023/07/25 07:08:29;;;;;;;7.13;2.43;;;;;;;;;;5030263;28;20450;-51
2023/07/25 07:10:56;;;;;;;2.80;2.60;;;;;;;;;;5028309;28;20462;-56
2023/07/25 07:13:24;;;;;;;7.73;2.93;;;;;;;;;;5013786;28;20453;-59
2023/07/25 07:15:51;;;;;;;3.60;2.53;;;;;;;;;;5030645;28;20448;-59
2023/07/25 07:18:18;;;;;;;6.60;2.83;;;;;;;;;;5033528;28;20451;-59
2023/07/25 07:20:47;;;;;;;3.40;3.10;;;;;;;;;;5013748;28;20485;-60
2023/07/25 07:23:14;;;;;;;3.00;2.70;;;;;;;;;;5013658;28;21008;-58
2023/07/25 07:25:43;;;;;;;4.10;2.83;;;;;;;;;;5013841;28;20456;-58
2023/07/25 07:28:10;;;;;;;4.30;2.50;;;;;;;;;;5013613;28;21017;-58
2023/07/25 07:30:37;;;;;;;4.33;2.10;;;;;;;;;;5013655;28;20453;-58
2023/07/25 07:33:04;;;;;;;4.50;3.00;;;;;;;;;;5013583;28;20449;-58
2023/07/25 07:35:30;;;;;;;4.37;2.77;;;;;;;;;;5013633;28;20482;-54
2023/07/25 07:37:59;;;;;;;6.20;2.17;;;;;;;;;;5013553;28;20456;-61
2023/07/25 07:40:28;;;;;;;3.93;2.40;;;;;;;;;;5013070;28;20544;-60
2023/07/25 07:42:56;;;;;;;2.60;2.40;;;;;;;;;;5013204;28;20521;-59
2023/07/25 07:45:24;;;;;;;3.90;2.10;;;;;;;;;;5012578;28;20545;-59
2023/07/25 07:47:51;;;;;;;2.20;1.83;;;;;;;;;;5013380;28;20461;-58
2023/07/25 07:50:19;;;;;;;9.40;2.63;;;;;;;;;;5013358;28;20465;-58
2023/07/25 07:52:46;;;;;;;5.37;1.87;;;;;;;;;;5013605;28;20469;-59
2023/07/25 07:55:18;;;;;;;4.50;2.47;;;;;;;;;;5013165;28;20458;-59
2023/07/25 07:57:47;;;;;;;6.90;2.47;;;;;;;;;;5012914;28;21020;-59
2023/07/25 08:00:16;;;;;;;6.80;2.00;;;;;;;;;;5012991;28;20454;-59
2023/07/25 08:02:44;;;;;;;1.97;1.77;;;;;;;;;;5013258;28;20535;-59
2023/07/25 08:05:12;;;;;;;2.37;1.70;;;;;;;;;;5013269;28;20554;-59
2023/07/25 08:07:39;;;;;;;3.90;1.90;;;;;;;;;;5012542;28;20451;-59
2023/07/25 08:10:06;;;;;;;4.23;2.23;;;;;;;;;;5012718;28;20446;-59
2023/07/25 08:12:33;;;;;;;3.53;2.10;;;;;;;;;;5012500;28;20461;-60
2023/07/25 08:15:00;;;;;;;2.83;2.10;;;;;;;;;;5012464;28;20449;-59
2023/07/25 08:17:28;;;;;;;6.57;1.87;;;;;;;;;;5012804;28;20861;-59
2023/07/25 08:19:55;;;;;;;2.43;1.47;;;;;;;;;;5012731;28;20486;-59
2023/07/25 08:22:22;;;;;;;2.17;1.40;;;;;;;;;;5012827;28;20488;-62
2023/07/25 08:24:49;;;;;;;3.03;1.60;;;;;;;;;;5012438;28;20539;-60
2023/07/25 08:27:16;;;;;;;3.40;2.10;;;;;;;;;;5012809;28;20541;-59
2023/07/25 08:29:45;;;;;;;3.83;1.70;;;;;;;;;;5012822;28;20476;-59
2023/07/25 08:32:12;;;;;;;1.83;1.67;;;;;;;;;;5012851;28;20453;-59
2023/07/25 08:34:40;;;;;;;3.90;1.60;;;;;;;;;;5012658;28;20446;-59
2023/07/25 08:37:07;;;;;;;3.83;1.60;;;;;;;;;;5012695;28;20461;-58
2023/07/25 08:39:35;;;;;;;2.57;1.20;;;;;;;;;;5012294;28;20452;-58
2023/07/25 08:42:05;;;;;;;1.47;1.17;;;;;;;;;;5012423;28;20601;-57
2023/07/25 08:44:33;;;;;;;2.10;1.90;;;;;;;;;;5012494;28;20830;-59
2023/07/25 08:47:02;;;;;;;2.17;1.27;;;;;;;;;;5012708;28;20453;-58
2023/07/25 08:49:32;;;;;;;1.67;1.40;;;;;;;;;;5012580;28;20473;-58
2023/07/25 08:52:02;;;;;;;2.37;1.63;;;;;;;;;;5012728;28;20883;-57
2023/07/25 08:54:31;;;;;;;3.00;1.40;;;;;;;;;;5012804;28;20533;-58
2023/07/25 08:56:58;;;;;;;7.33;1.60;;;;;;;;;;5016222;28;20469;-61
2023/07/25 08:59:25;;;;;;;1.77;1.37;;;;;;;;;;5016359;28;20457;-59
2023/07/25 09:01:54;;;;;;;1.60;1.03;;;;;;;;;;5016201;28;20533;-58
2023/07/25 09:04:21;;;;;;;2.13;1.37;;;;;;;;;;5015779;28;20462;-58
2023/07/25 09:06:48;;;;;;;3.97;1.53;;;;;;;;;;5016225;28;20447;-59
2023/07/25 09:09:16;;;;;;;5.63;1.70;;;;;;;;;;5015939;28;20546;-59
2023/07/25 09:11:44;;;;;;;1.70;1.60;;;;;;;;;;5016317;28;20457;-59
2023/07/25 09:14:12;;;;;;;1.87;1.30;;;;;;;;;;5015931;28;20796;-58
2023/07/25 09:16:39;;;;;;;2.50;1.40;;;;;;;;;;5015857;28;20477;-59
2023/07/25 09:19:06;;;;;;;5.90;1.80;;;;;;;;;;5015941;28;20446;-59
2023/07/25 09:21:33;;;;;;;3.13;1.70;;;;;;;;;;5015683;28;20452;-59
2023/07/25 09:24:00;;;;;;;2.03;1.80;;;;;;;;;;5015834;28;20474;-59
2023/07/25 09:26:31;;;;;;;1.63;1.40;;;;;;;;;;5015915;28;20549;-57
2023/07/25 09:28:59;;;;;;;2.63;1.40;;;;;;;;;;5015626;28;20814;-58
2023/07/25 09:31:26;;;;;;;1.30;1.20;;;;;;;;;;5015381;28;20482;-59
2023/07/25 09:33:54;;;;;;;1.40;1.00;;;;;;;;;;5015366;28;20482;-58
2023/07/25 09:36:21;;;;;;;2.43;1.20;;;;;;;;;;5015663;28;20447;-58
2023/07/25 09:38:49;;;;;;;5.30;2.00;;;;;;;;;;5015671;28;20778;-57
2023/07/25 09:41:16;;;;;;;3.77;1.93;;;;;;;;;;5015397;28;20542;-59
2023/07/25 09:43:44;;;;;;;1.70;1.40;;;;;;;;;;5015312;28;21081;-58
2023/07/25 09:46:12;;;;;;;3.60;1.13;;;;;;;;;;5015336;28;20838;-59
2023/07/25 09:48:41;;;;;;;1.87;1.30;;;;;;;;;;5015251;28;20490;-58
2023/07/25 09:51:08;;;;;;;1.53;1.13;;;;;;;;;;5015323;28;20530;-59
2023/07/25 09:53:35;;;;;;;5.03;1.50;;;;;;;;;;5015472;28;20862;-58
2023/07/25 09:56:03;;;;;;;2.97;1.70;;;;;;;;;;5015176;28;20496;-57
2023/07/25 09:58:30;;;;;;;3.47;1.37;;;;;;;;;;5015021;28;20538;-60
2023/07/25 10:00:58;;;;;;;4.87;1.43;;;;;;;;;;5015091;28;20481;-57
2023/07/25 10:03:26;;;;;;;1.83;1.23;;;;;;;;;;5015058;28;20578;-58
2023/07/25 10:05:53;;;;;;;3.67;1.77;;;;;;;;;;5015065;28;20968;-57
2023/07/25 10:08:20;;;;;;;2.53;1.27;;;;;;;;;;5014303;28;20557;-58
2023/07/25 10:10:47;;;;;;;2.20;1.20;;;;;;;;;;5014888;28;20477;-56
2023/07/25 10:13:15;;;;;;;1.53;1.37;;;;;;;;;;5014950;28;20465;-55
2023/07/25 10:15:42;;;;;;;3.63;2.50;;;;;;;;;;5014711;28;20477;-57
2023/07/25 10:18:20;;;;;;;2.20;1.40;;;;;;;;;;5014913;28;20451;-54
2023/07/25 10:20:47;;;;;;;2.57;1.40;;;;;;;;;;5014925;28;20462;-55
2023/07/25 10:23:14;;;;;;;4.70;1.80;;;;;;;;;;5014790;28;20487;-54
2023/07/25 10:25:41;;;;;;;2.07;1.43;;;;;;;;;;5014088;28;20455;-54
2023/07/25 10:28:08;;;;;;;2.50;1.60;;;;;;;;;;5022280;28;20449;-55
2023/07/25 10:30:41;;;;;;;2.87;1.80;;;;;;;;;;5024527;28;20474;-54
2023/07/25 10:33:08;;;;;;;3.53;1.50;;;;;;;;;;5023447;28;20447;-52
2023/07/25 10:35:44;;;;;;;2.97;1.50;;;;;;;;;;5023777;28;20457;-54
2023/07/25 10:38:12;;;;;;;2.80;1.33;;;;;;;;;;5023602;28;20450;-55
2023/07/25 10:40:52;;;;;;;2.03;1.10;;;;;;;;;;5015439;28;20874;-55
2023/07/25 10:43:19;;;;;;;2.93;1.73;;;;;;;;;;5024645;28;20492;-54
2023/07/25 10:45:53;;;;;;;2.30;1.30;;;;;;;;;;5023144;28;20449;-54
2023/07/25 10:48:27;;;;;;;2.90;1.30;;;;;;;;;;5023071;28;20534;-53
2023/07/25 10:50:55;;;;;;;3.63;1.20;;;;;;;;;;5014182;28;20460;-53
2023/07/25 10:53:24;;;;;;;3.00;1.23;;;;;;;;;;5014280;28;20457;-55
2023/07/25 10:56:09;;;;;;;2.00;1.90;;;;;;;;;;5014239;28;20455;-54
2023/07/25 10:58:37;;;;;;;1.83;1.27;;;;;;;;;;5013959;28;20482;-52
2023/07/25 11:01:04;;;;;;;2.70;1.37;;;;;;;;;;5014326;28;20455;-56
2023/07/25 11:03:32;;;;;;;2.87;1.40;;;;;;;;;;5013733;28;20482;-58
2023/07/25 11:06:14;;;;;;;1.97;1.43;;;;;;;;;;5013544;28;20450;-59
2023/07/25 11:08:43;;;;;;;2.27;1.23;;;;;;;;;;5008005;28;20544;-58
2023/07/25 11:11:11;;;;;;;1.77;1.40;;;;;;;;;;5013998;28;20457;-57
2023/07/25 11:13:38;;;;;;;1.57;1.20;;;;;;;;;;5013886;28;20542;-58
2023/07/25 11:16:06;;;;;;;1.87;1.20;;;;;;;;;;5013580;28;20482;-59
2023/07/25 11:18:36;;;;;;;1.30;1.10;;;;;;;;;;5014088;28;20446;-59
2023/07/25 11:21:04;;;;;;;3.10;1.43;;;;;;;;;;5023506;28;20449;-57
2023/07/25 11:23:31;;;;;;;2.27;1.20;;;;;;;;;;5023517;28;20486;-57
2023/07/25 11:26:00;;;;;;;2.03;1.53;;;;;;;;;;5030457;28;20457;-57
2023/07/25 11:28:27;;;;;;;2.80;1.73;;;;;;;;;;5033389;28;20536;-58
2023/07/25 11:30:55;;;;;;;1.30;1.20;;;;;;;;;;5033514;28;20445;-57
2023/07/25 11:33:22;;;;;;;1.40;1.30;;;;;;;;;;5033368;28;20541;-57
2023/07/25 11:35:53;;;;;;;1.93;1.70;;;;;;;;;;5033279;28;20472;-58
2023/07/25 11:38:20;;;;;;;2.77;1.57;;;;;;;;;;5033191;28;20468;-58
2023/07/25 11:40:50;;;;;;;2.67;1.60;;;;;;;;;;5033168;28;20441;-56
2023/07/25 11:43:18;;;;;;;3.43;1.30;;;;;;;;;;5027105;28;20550;-58
2023/07/25 11:45:46;;;;;;;2.60;1.47;;;;;;;;;;5021958;28;20457;-55
2023/07/25 11:48:13;;;;;;;1.90;1.30;;;;;;;;;;5022608;28;20449;-58
2023/07/25 11:50:42;;;;;;;1.23;1.13;;;;;;;;;;5023745;28;20448;-58
2023/07/25 11:53:09;;;;;;;3.20;1.67;;;;;;;;;;5027939;28;21021;-58
2023/07/25 11:55:37;;;;;;;1.53;1.37;;;;;;;;;;5032620;28;20454;-58
2023/07/25 11:58:04;;;;;;;1.70;1.00;;;;;;;;;;5033033;28;20484;-60
2023/07/25 12:00:41;;;;;;;1.47;1.37;;;;;;;;;;5033023;28;20446;-59
2023/07/25 12:03:17;;;;;;;2.17;1.50;;;;;;;;;;5032891;28;20473;-59
2023/07/25 12:05:44;;;;;;;2.13;1.70;;;;;;;;;;5032884;28;20449;-59
2023/07/25 12:08:11;;;;;;;3.00;1.20;;;;;;;;;;5026105;28;20447;-58
2023/07/25 12:10:38;;;;;;;5.07;1.30;;;;;;;;;;5022560;28;20453;-57
2023/07/25 12:13:08;;;;;;;2.70;1.53;;;;;;;;;;5021659;28;20467;-56
2023/07/25 12:15:46;;;;;;;1.43;1.27;;;;;;;;;;5022182;28;20447;-57
2023/07/25 12:18:26;;;;;;;1.10;1.00;;;;;;;;;;5021011;28;20447;-58
2023/07/25 12:20:55;;;;;;;2.03;1.60;;;;;;;;;;5021646;28;20457;-59
2023/07/25 12:23:29;;;;;;;3.70;1.90;;;;;;;;;;5022316;28;20493;-59
2023/07/25 12:25:56;;;;;;;3.83;1.33;;;;;;;;;;5022221;28;20876;-58
2023/07/25 12:28:24;;;;;;;3.33;1.63;;;;;;;;;;5021560;28;20943;-58
2023/07/25 12:30:52;;;;;;;4.23;1.90;;;;;;;;;;5023274;28;20458;-59
2023/07/25 12:33:19;;;;;;;2.37;1.60;;;;;;;;;;5016361;28;20622;-58
2023/07/25 12:35:46;;;;;;;2.53;1.43;;;;;;;;;;5016388;28;20529;-58
2023/07/25 12:38:13;;;;;;;2.90;1.57;;;;;;;;;;5016633;28;20574;-58
2023/07/25 12:40:40;;;;;;;1.80;1.63;;;;;;;;;;5016549;28;20608;-58
2023/07/25 12:43:07;;;;;;;5.80;1.77;;;;;;;;;;5016436;28;20446;-58
2023/07/25 12:45:34;;;;;;;1.37;1.27;;;;;;;;;;5024578;28;20447;-58
2023/07/25 12:48:02;;;;;;;1.67;1.53;;;;;;;;;;5022286;28;20801;-59
2023/07/25 12:50:30;;;;;;;1.20;1.10;;;;;;;;;;5031503;28;20453;-58
2023/07/25 12:52:57;;;;;;;2.43;1.80;;;;;;;;;;5020665;28;20528;-59
2023/07/25 12:55:24;;;;;;;1.20;1.10;;;;;;;;;;5027564;28;20446;-58
2023/07/25 12:57:52;;;;;;;2.97;1.40;;;;;;;;;;5029926;28;20562;-58
2023/07/25 13:00:19;;;;;;;1.30;1.20;;;;;;;;;;5024187;28;21004;-59
2023/07/25 13:02:46;;;;;;;1.50;1.20;;;;;;;;;;5034989;28;21003;-58
2023/07/25 13:05:14;;;;;;;1.87;1.30;;;;;;;;;;5019548;28;20481;-59
2023/07/25 13:07:41;;;;;;;2.50;1.27;;;;;;;;;;5029147;28;20446;-58
2023/07/25 13:10:11;;;;;;;1.43;1.23;;;;;;;;;;5026950;28;20464;-58
2023/07/25 13:12:38;;;;;;;2.00;1.10;;;;;;;;;;5020759;28;20458;-59
2023/07/25 13:15:05;;;;;;;1.87;1.20;;;;;;;;;;5016115;28;21010;-58
2023/07/25 13:17:33;;;;;;;2.60;1.50;;;;;;;;;;5016071;28;21154;-59
2023/07/25 13:20:00;;;;;;;1.60;1.10;;;;;;;;;;5015979;28;20458;-58
2023/07/25 13:22:28;;;;;;;2.03;1.40;;;;;;;;;;5016297;28;20489;-58
2023/07/25 13:24:56;;;;;;;1.30;1.20;;;;;;;;;;5028192;28;20494;-59
2023/07/25 13:27:25;;;;;;;2.67;1.73;;;;;;;;;;5024171;28;20453;-59
2023/07/25 13:29:52;;;;;;;2.30;1.40;;;;;;;;;;5022672;28;20504;-58
2023/07/25 13:32:19;;;;;;;1.60;1.50;;;;;;;;;;5031335;28;21013;-58
2023/07/25 13:34:46;;;;;;;2.10;1.27;;;;;;;;;;5024110;28;20533;-58
2023/07/25 13:37:12;;;;;;;1.57;1.40;;;;;;;;;;5022340;28;20541;-58
2023/07/25 13:39:41;;;;;;;1.60;1.50;;;;;;;;;;5031286;28;20446;-58
2023/07/25 13:42:08;;;;;;;1.60;1.20;;;;;;;;;;5019981;28;20537;-59
2023/07/25 13:44:35;;;;;;;2.93;1.53;;;;;;;;;;5025510;28;21027;-58
2023/07/25 13:47:02;;;;;;;2.57;1.80;;;;;;;;;;5028240;28;20532;-59
2023/07/25 13:49:29;;;;;;;1.73;1.20;;;;;;;;;;5018611;28;20546;-58
2023/07/25 13:51:56;;;;;;;3.20;1.53;;;;;;;;;;5034653;28;20504;-58
2023/07/25 13:54:23;;;;;;;1.80;1.17;;;;;;;;;;5035078;28;20476;-58
2023/07/25 13:56:52;;;;;;;3.90;1.80;;;;;;;;;;5032339;28;20482;-58
2023/07/25 13:59:18;;;;;;;1.40;1.20;;;;;;;;;;5015505;28;20545;-58
2023/07/25 14:01:45;;;;;;;1.87;1.30;;;;;;;;;;5015388;28;20566;-58
2023/07/25 14:04:12;;;;;;;3.17;1.23;;;;;;;;;;5015226;28;20517;-59
2023/07/25 14:06:39;;;;;;;1.70;1.60;;;;;;;;;;5015169;28;20992;-58
2023/07/25 14:09:06;;;;;;;4.33;1.93;;;;;;;;;;5015061;28;20545;-59
2023/07/25 14:11:33;;;;;;;3.57;3.10;;;;;;;;;;5015297;28;20447;-58
2023/07/25 14:14:01;;;;;;;1.93;1.00;;;;;;;;;;5015219;28;21026;-58
2023/07/25 14:16:28;;;;;;;1.97;1.73;;;;;;;;;;5023951;28;20551;-58
2023/07/25 14:18:55;;;;;;;2.60;1.40;;;;;;;;;;5024229;28;20446;-59
2023/07/25 14:21:22;;;;;;;1.43;1.30;;;;;;;;;;5022672;28;20507;-58
2023/07/25 14:23:49;;;;;;;1.30;1.20;;;;;;;;;;5025181;28;20474;-58
2023/07/25 14:26:17;;;;;;;2.80;1.57;;;;;;;;;;5014427;28;20490;-58
2023/07/25 14:28:44;;;;;;;1.47;1.37;;;;;;;;;;5014903;28;20830;-58
2023/07/25 14:31:12;;;;;;;2.80;1.40;;;;;;;;;;5014853;28;20482;-58
2023/07/25 14:33:39;;;;;;;1.40;1.30;;;;;;;;;;5014650;28;20458;-58
2023/07/25 14:36:06;;;;;;;5.60;1.77;;;;;;;;;;5014494;28;20545;-58
2023/07/25 14:38:33;;;;;;;3.80;1.93;;;;;;;;;;5014751;28;20501;-58
2023/07/25 14:41:00;;;;;;;2.50;1.57;;;;;;;;;;5014659;28;20903;-59
2023/07/25 14:43:27;;;;;;;2.83;1.40;;;;;;;;;;5014649;28;20566;-58
2023/07/25 14:45:55;;;;;;;6.57;1.90;;;;;;;;;;5014429;28;20482;-58